sensor_id;sensor_type;location;lat;lon;timestamp;P1;durP1;ratioP1;P2;durP2;ratioP2
70970;SDS011;58632;51.718;19.446;2023-07-13T00:02:05;7.00;;;4.70;;
70970;SDS011;58632;51.718;19.446;2023-07-13T00:04:30;11.00;;;5.50;;
70970;SDS011;58632;51.718;19.446;2023-07-13T00:06:58;8.20;;;4.90;;
70970;SDS011;58632;51.718;19.446;2023-07-13T00:09:24;11.90;;;5.70;;
70970;SDS011;58632;51.718;19.446;2023-07-13T00:11:54;10.70;;;5.00;;
70970;SDS011;58632;51.718;19.446;2023-07-13T00:14:22;7.60;;;5.10;;
70970;SDS011;58632;51.718;19.446;2023-07-13T00:16:49;9.80;;;5.10;;
70970;SDS011;58632;51.718;19.446;2023-07-13T00:19:15;7.10;;;5.00;;
70970;SDS011;58632;51.718;19.446;2023-07-13T00:21:40;9.30;;;5.30;;
70970;SDS011;58632;51.718;19.446;2023-07-13T00:24:07;7.40;;;5.10;;
70970;SDS011;58632;51.718;19.446;2023-07-13T00:26:40;8.50;;;5.10;;
70970;SDS011;58632;51.718;19.446;2023-07-13T00:31:35;12.30;;;5.30;;
70970;SDS011;58632;51.718;19.446;2023-07-13T00:34:02;12.90;;;5.50;;
70970;SDS011;58632;51.718;19.446;2023-07-13T00:36:29;10.50;;;5.10;;
70970;SDS011;58632;51.718;19.446;2023-07-13T00:38:55;12.00;;;5.40;;
70970;SDS011;58632;51.718;19.446;2023-07-13T00:41:21;10.90;;;5.50;;
70970;SDS011;58632;51.718;19.446;2023-07-13T00:43:48;9.60;;;5.20;;
70970;SDS011;58632;51.718;19.446;2023-07-13T00:48:46;7.50;;;4.40;;
70970;SDS011;58632;51.718;19.446;2023-07-13T00:51:21;7.40;;;4.70;;
70970;SDS011;58632;51.718;19.446;2023-07-13T00:53:50;8.30;;;4.70;;
70970;SDS011;58632;51.718;19.446;2023-07-13T00:56:18;8.60;;;5.10;;
70970;SDS011;58632;51.718;19.446;2023-07-13T00:58:44;14.40;;;5.40;;
70970;SDS011;58632;51.718;19.446;2023-07-13T01:01:13;13.80;;;5.30;;
70970;SDS011;58632;51.718;19.446;2023-07-13T01:03:39;8.00;;;5.00;;
70970;SDS011;58632;51.718;19.446;2023-07-13T01:06:06;9.40;;;4.50;;
70970;SDS011;58632;51.718;19.446;2023-07-13T01:08:33;11.10;;;4.90;;
70970;SDS011;58632;51.718;19.446;2023-07-13T01:13:25;6.70;;;4.80;;
70970;SDS011;58632;51.718;19.446;2023-07-13T01:15:52;7.80;;;5.00;;
70970;SDS011;58632;51.718;19.446;2023-07-13T01:18:23;6.20;;;5.00;;
70970;SDS011;58632;51.718;19.446;2023-07-13T01:23:24;6.90;;;4.60;;
70970;SDS011;58632;51.718;19.446;2023-07-13T01:25:51;6.80;;;4.40;;
70970;SDS011;58632;51.718;19.446;2023-07-13T01:28:22;6.70;;;4.60;;
70970;SDS011;58632;51.718;19.446;2023-07-13T01:30:55;7.60;;;4.70;;
70970;SDS011;58632;51.718;19.446;2023-07-13T01:33:22;6.70;;;4.60;;
70970;SDS011;58632;51.718;19.446;2023-07-13T01:35:51;7.20;;;4.80;;
70970;SDS011;58632;51.718;19.446;2023-07-13T01:38:17;7.60;;;4.60;;
70970;SDS011;58632;51.718;19.446;2023-07-13T01:40:44;7.40;;;4.50;;
70970;SDS011;58632;51.718;19.446;2023-07-13T01:43:11;8.10;;;4.90;;
70970;SDS011;58632;51.718;19.446;2023-07-13T01:45:37;7.40;;;4.50;;
70970;SDS011;58632;51.718;19.446;2023-07-13T01:48:02;8.70;;;5.10;;
70970;SDS011;58632;51.718;19.446;2023-07-13T01:50:28;8.00;;;4.80;;
70970;SDS011;58632;51.718;19.446;2023-07-13T01:52:56;7.20;;;4.50;;
70970;SDS011;58632;51.718;19.446;2023-07-13T01:55:22;7.20;;;4.70;;
70970;SDS011;58632;51.718;19.446;2023-07-13T01:57:48;9.40;;;4.60;;
70970;SDS011;58632;51.718;19.446;2023-07-13T02:00:14;6.50;;;4.70;;
70970;SDS011;58632;51.718;19.446;2023-07-13T02:02:42;7.90;;;4.70;;
70970;SDS011;58632;51.718;19.446;2023-07-13T02:05:08;9.30;;;5.00;;
70970;SDS011;58632;51.718;19.446;2023-07-13T02:07:35;8.60;;;4.60;;
70970;SDS011;58632;51.718;19.446;2023-07-13T02:10:02;9.30;;;4.50;;
70970;SDS011;58632;51.718;19.446;2023-07-13T02:12:27;9.00;;;4.50;;
70970;SDS011;58632;51.718;19.446;2023-07-13T02:14:53;8.50;;;4.90;;
70970;SDS011;58632;51.718;19.446;2023-07-13T02:17:19;7.40;;;5.00;;
70970;SDS011;58632;51.718;19.446;2023-07-13T02:19:45;8.90;;;4.90;;
70970;SDS011;58632;51.718;19.446;2023-07-13T02:22:11;9.10;;;5.10;;
70970;SDS011;58632;51.718;19.446;2023-07-13T02:24:36;7.80;;;4.80;;
70970;SDS011;58632;51.718;19.446;2023-07-13T02:27:03;8.10;;;4.50;;
70970;SDS011;58632;51.718;19.446;2023-07-13T02:29:29;6.80;;;4.40;;
70970;SDS011;58632;51.718;19.446;2023-07-13T02:31:55;8.60;;;4.90;;
70970;SDS011;58632;51.718;19.446;2023-07-13T02:34:23;7.60;;;5.10;;
70970;SDS011;58632;51.718;19.446;2023-07-13T02:36:48;8.80;;;5.70;;
70970;SDS011;58632;51.718;19.446;2023-07-13T02:39:14;8.30;;;5.00;;
70970;SDS011;58632;51.718;19.446;2023-07-13T02:41:40;8.40;;;5.20;;
70970;SDS011;58632;51.718;19.446;2023-07-13T02:44:06;12.90;;;5.30;;
70970;SDS011;58632;51.718;19.446;2023-07-13T02:46:33;7.30;;;5.50;;
70970;SDS011;58632;51.718;19.446;2023-07-13T02:49:00;9.40;;;5.70;;
70970;SDS011;58632;51.718;19.446;2023-07-13T02:51:26;7.60;;;5.60;;
70970;SDS011;58632;51.718;19.446;2023-07-13T02:53:52;8.40;;;5.80;;
70970;SDS011;58632;51.718;19.446;2023-07-13T02:56:22;9.10;;;5.80;;
70970;SDS011;58632;51.718;19.446;2023-07-13T02:58:51;7.50;;;5.70;;
70970;SDS011;58632;51.718;19.446;2023-07-13T03:01:17;11.40;;;6.60;;
70970;SDS011;58632;51.718;19.446;2023-07-13T03:03:44;10.10;;;6.20;;
70970;SDS011;58632;51.718;19.446;2023-07-13T03:06:11;12.40;;;6.90;;
70970;SDS011;58632;51.718;19.446;2023-07-13T03:08:40;13.20;;;6.80;;
70970;SDS011;58632;51.718;19.446;2023-07-13T03:11:07;9.20;;;6.80;;
70970;SDS011;58632;51.718;19.446;2023-07-13T03:13:36;11.70;;;6.70;;
70970;SDS011;58632;51.718;19.446;2023-07-13T03:16:04;13.50;;;7.30;;
70970;SDS011;58632;51.718;19.446;2023-07-13T03:18:31;10.60;;;7.40;;
70970;SDS011;58632;51.718;19.446;2023-07-13T03:20:57;10.40;;;6.80;;
70970;SDS011;58632;51.718;19.446;2023-07-13T03:23:24;14.00;;;7.40;;
70970;SDS011;58632;51.718;19.446;2023-07-13T03:25:50;8.40;;;7.00;;
70970;SDS011;58632;51.718;19.446;2023-07-13T03:28:15;13.30;;;7.50;;
70970;SDS011;58632;51.718;19.446;2023-07-13T03:30:44;10.50;;;7.30;;
70970;SDS011;58632;51.718;19.446;2023-07-13T03:33:10;10.90;;;7.10;;
70970;SDS011;58632;51.718;19.446;2023-07-13T03:35:39;11.20;;;6.90;;
70970;SDS011;58632;51.718;19.446;2023-07-13T03:38:05;10.30;;;7.00;;
70970;SDS011;58632;51.718;19.446;2023-07-13T03:40:31;11.70;;;8.00;;
70970;SDS011;58632;51.718;19.446;2023-07-13T03:42:57;11.50;;;7.20;;
70970;SDS011;58632;51.718;19.446;2023-07-13T03:45:22;10.10;;;7.10;;
70970;SDS011;58632;51.718;19.446;2023-07-13T03:47:48;14.00;;;8.70;;
70970;SDS011;58632;51.718;19.446;2023-07-13T03:52:40;13.30;;;7.50;;
70970;SDS011;58632;51.718;19.446;2023-07-13T03:55:05;10.60;;;8.20;;
70970;SDS011;58632;51.718;19.446;2023-07-13T03:57:36;8.90;;;8.00;;
70970;SDS011;58632;51.718;19.446;2023-07-13T04:00:02;8.90;;;7.70;;
70970;SDS011;58632;51.718;19.446;2023-07-13T04:02:29;11.40;;;8.70;;
70970;SDS011;58632;51.718;19.446;2023-07-13T04:04:55;11.20;;;8.10;;
70970;SDS011;58632;51.718;19.446;2023-07-13T04:07:21;12.50;;;8.30;;
70970;SDS011;58632;51.718;19.446;2023-07-13T04:09:47;12.90;;;8.20;;
70970;SDS011;58632;51.718;19.446;2023-07-13T04:12:13;13.70;;;8.10;;
70970;SDS011;58632;51.718;19.446;2023-07-13T04:14:39;11.30;;;7.40;;
70970;SDS011;58632;51.718;19.446;2023-07-13T04:17:05;11.50;;;8.30;;
70970;SDS011;58632;51.718;19.446;2023-07-13T04:19:30;12.90;;;8.50;;
70970;SDS011;58632;51.718;19.446;2023-07-13T04:21:56;13.00;;;8.00;;
70970;SDS011;58632;51.718;19.446;2023-07-13T04:24:22;13.20;;;7.30;;
70970;SDS011;58632;51.718;19.446;2023-07-13T04:29:14;10.60;;;6.90;;
70970;SDS011;58632;51.718;19.446;2023-07-13T04:31:40;10.70;;;6.40;;
70970;SDS011;58632;51.718;19.446;2023-07-13T04:34:08;9.00;;;6.60;;
70970;SDS011;58632;51.718;19.446;2023-07-13T04:36:34;12.60;;;7.00;;
70970;SDS011;58632;51.718;19.446;2023-07-13T04:39:02;9.90;;;6.70;;
70970;SDS011;58632;51.718;19.446;2023-07-13T04:41:31;10.50;;;6.30;;
70970;SDS011;58632;51.718;19.446;2023-07-13T04:43:57;9.00;;;6.20;;
70970;SDS011;58632;51.718;19.446;2023-07-13T04:46:23;12.10;;;5.80;;
70970;SDS011;58632;51.718;19.446;2023-07-13T04:48:52;9.60;;;5.80;;
70970;SDS011;58632;51.718;19.446;2023-07-13T04:51:18;12.20;;;6.80;;
70970;SDS011;58632;51.718;19.446;2023-07-13T04:53:45;11.90;;;6.30;;
70970;SDS011;58632;51.718;19.446;2023-07-13T04:56:11;9.50;;;6.20;;
70970;SDS011;58632;51.718;19.446;2023-07-13T04:58:41;9.90;;;6.80;;
70970;SDS011;58632;51.718;19.446;2023-07-13T05:01:07;15.20;;;7.40;;
70970;SDS011;58632;51.718;19.446;2023-07-13T05:03:35;10.20;;;6.30;;
70970;SDS011;58632;51.718;19.446;2023-07-13T05:06:02;16.20;;;6.90;;
70970;SDS011;58632;51.718;19.446;2023-07-13T05:08:33;7.90;;;6.10;;
70970;SDS011;58632;51.718;19.446;2023-07-13T05:10:59;13.70;;;6.00;;
70970;SDS011;58632;51.718;19.446;2023-07-13T05:13:25;11.20;;;6.10;;
70970;SDS011;58632;51.718;19.446;2023-07-13T05:16:04;11.50;;;6.70;;
70970;SDS011;58632;51.718;19.446;2023-07-13T05:18:32;10.90;;;6.40;;
70970;SDS011;58632;51.718;19.446;2023-07-13T05:21:02;9.30;;;6.20;;
70970;SDS011;58632;51.718;19.446;2023-07-13T05:23:29;8.30;;;6.20;;
70970;SDS011;58632;51.718;19.446;2023-07-13T05:25:56;8.50;;;6.40;;
70970;SDS011;58632;51.718;19.446;2023-07-13T05:28:25;11.60;;;6.50;;
70970;SDS011;58632;51.718;19.446;2023-07-13T05:30:51;9.80;;;6.60;;
70970;SDS011;58632;51.718;19.446;2023-07-13T05:33:17;9.80;;;7.10;;
70970;SDS011;58632;51.718;19.446;2023-07-13T05:35:43;9.70;;;6.50;;
70970;SDS011;58632;51.718;19.446;2023-07-13T05:38:08;11.70;;;6.70;;
70970;SDS011;58632;51.718;19.446;2023-07-13T05:40:35;8.80;;;6.40;;
70970;SDS011;58632;51.718;19.446;2023-07-13T05:43:02;11.20;;;6.60;;
70970;SDS011;58632;51.718;19.446;2023-07-13T05:47:54;10.30;;;6.70;;
70970;SDS011;58632;51.718;19.446;2023-07-13T05:50:19;9.30;;;6.90;;
70970;SDS011;58632;51.718;19.446;2023-07-13T05:52:46;10.60;;;6.60;;
70970;SDS011;58632;51.718;19.446;2023-07-13T05:55:12;13.30;;;6.90;;
70970;SDS011;58632;51.718;19.446;2023-07-13T05:57:38;10.20;;;7.10;;
70970;SDS011;58632;51.718;19.446;2023-07-13T06:00:04;10.40;;;6.80;;
70970;SDS011;58632;51.718;19.446;2023-07-13T06:04:55;11.50;;;6.90;;
70970;SDS011;58632;51.718;19.446;2023-07-13T06:07:21;9.20;;;6.80;;
70970;SDS011;58632;51.718;19.446;2023-07-13T06:12:13;13.00;;;7.00;;
70970;SDS011;58632;51.718;19.446;2023-07-13T06:14:39;12.00;;;7.30;;
70970;SDS011;58632;51.718;19.446;2023-07-13T06:17:04;11.70;;;7.40;;
70970;SDS011;58632;51.718;19.446;2023-07-13T06:19:31;15.80;;;7.40;;
70970;SDS011;58632;51.718;19.446;2023-07-13T06:21:58;13.00;;;7.40;;
70970;SDS011;58632;51.718;19.446;2023-07-13T06:24:24;9.80;;;7.30;;
70970;SDS011;58632;51.718;19.446;2023-07-13T06:26:50;10.80;;;7.20;;
70970;SDS011;58632;51.718;19.446;2023-07-13T06:29:17;9.70;;;7.40;;
70970;SDS011;58632;51.718;19.446;2023-07-13T06:36:34;13.40;;;7.60;;
70970;SDS011;58632;51.718;19.446;2023-07-13T06:39:01;14.90;;;7.40;;
70970;SDS011;58632;51.718;19.446;2023-07-13T06:41:27;11.40;;;7.20;;
70970;SDS011;58632;51.718;19.446;2023-07-13T06:43:53;10.90;;;7.80;;
70970;SDS011;58632;51.718;19.446;2023-07-13T06:48:48;13.80;;;7.60;;
70970;SDS011;58632;51.718;19.446;2023-07-13T06:51:17;9.90;;;7.10;;
70970;SDS011;58632;51.718;19.446;2023-07-13T06:53:43;12.30;;;7.70;;
70970;SDS011;58632;51.718;19.446;2023-07-13T06:56:09;10.50;;;6.80;;
70970;SDS011;58632;51.718;19.446;2023-07-13T06:58:35;10.00;;;7.00;;
70970;SDS011;58632;51.718;19.446;2023-07-13T07:01:02;8.10;;;6.10;;
70970;SDS011;58632;51.718;19.446;2023-07-13T07:03:28;10.50;;;7.20;;
70970;SDS011;58632;51.718;19.446;2023-07-13T07:08:25;11.80;;;6.90;;
70970;SDS011;58632;51.718;19.446;2023-07-13T07:10:53;12.30;;;6.60;;
70970;SDS011;58632;51.718;19.446;2023-07-13T07:13:19;12.10;;;6.80;;
70970;SDS011;58632;51.718;19.446;2023-07-13T07:15:46;12.00;;;6.70;;
70970;SDS011;58632;51.718;19.446;2023-07-13T07:18:14;9.80;;;6.20;;
70970;SDS011;58632;51.718;19.446;2023-07-13T07:20:40;10.10;;;6.80;;
70970;SDS011;58632;51.718;19.446;2023-07-13T07:23:06;12.30;;;6.40;;
70970;SDS011;58632;51.718;19.446;2023-07-13T07:25:34;10.00;;;6.60;;
70970;SDS011;58632;51.718;19.446;2023-07-13T07:28:02;8.70;;;6.30;;
70970;SDS011;58632;51.718;19.446;2023-07-13T07:30:29;9.70;;;6.40;;
70970;SDS011;58632;51.718;19.446;2023-07-13T07:32:58;17.60;;;6.30;;
70970;SDS011;58632;51.718;19.446;2023-07-13T07:35:26;12.10;;;6.50;;
70970;SDS011;58632;51.718;19.446;2023-07-13T07:37:53;13.30;;;6.40;;
70970;SDS011;58632;51.718;19.446;2023-07-13T07:40:19;11.80;;;6.10;;
70970;SDS011;58632;51.718;19.446;2023-07-13T07:42:46;9.60;;;6.20;;
70970;SDS011;58632;51.718;19.446;2023-07-13T07:45:14;9.30;;;6.40;;
70970;SDS011;58632;51.718;19.446;2023-07-13T07:47:44;9.10;;;6.10;;
70970;SDS011;58632;51.718;19.446;2023-07-13T07:52:36;10.40;;;6.20;;
70970;SDS011;58632;51.718;19.446;2023-07-13T07:55:03;13.70;;;6.60;;
70970;SDS011;58632;51.718;19.446;2023-07-13T07:57:30;13.60;;;5.80;;
70970;SDS011;58632;51.718;19.446;2023-07-13T07:59:56;9.90;;;6.30;;
70970;SDS011;58632;51.718;19.446;2023-07-13T08:02:21;12.70;;;6.80;;
70970;SDS011;58632;51.718;19.446;2023-07-13T08:04:47;11.80;;;6.70;;
70970;SDS011;58632;51.718;19.446;2023-07-13T08:07:13;15.20;;;6.90;;
70970;SDS011;58632;51.718;19.446;2023-07-13T08:09:41;10.40;;;6.90;;
70970;SDS011;58632;51.718;19.446;2023-07-13T08:12:07;11.90;;;6.70;;
70970;SDS011;58632;51.718;19.446;2023-07-13T08:14:33;11.70;;;6.60;;
70970;SDS011;58632;51.718;19.446;2023-07-13T08:16:59;12.10;;;6.40;;
70970;SDS011;58632;51.718;19.446;2023-07-13T08:19:24;17.80;;;6.00;;
70970;SDS011;58632;51.718;19.446;2023-07-13T08:21:50;15.20;;;6.20;;
70970;SDS011;58632;51.718;19.446;2023-07-13T08:24:16;10.80;;;5.70;;
70970;SDS011;58632;51.718;19.446;2023-07-13T08:26:44;9.00;;;4.60;;
70970;SDS011;58632;51.718;19.446;2023-07-13T08:29:12;7.70;;;3.70;;
70970;SDS011;58632;51.718;19.446;2023-07-13T08:31:39;8.60;;;3.00;;
70970;SDS011;58632;51.718;19.446;2023-07-13T08:34:05;7.20;;;2.90;;
70970;SDS011;58632;51.718;19.446;2023-07-13T08:36:31;9.60;;;3.30;;
70970;SDS011;58632;51.718;19.446;2023-07-13T08:41:22;9.10;;;2.80;;
70970;SDS011;58632;51.718;19.446;2023-07-13T08:43:49;10.00;;;2.90;;
70970;SDS011;58632;51.718;19.446;2023-07-13T08:49:09;8.10;;;2.60;;
70970;SDS011;58632;51.718;19.446;2023-07-13T08:54:57;5.50;;;2.30;;
70970;SDS011;58632;51.718;19.446;2023-07-13T09:01:04;7.30;;;2.50;;
70970;SDS011;58632;51.718;19.446;2023-07-13T09:04:13;5.90;;;3.00;;
70970;SDS011;58632;51.718;19.446;2023-07-13T09:12:13;4.60;;;2.50;;
70970;SDS011;58632;51.718;19.446;2023-07-13T09:17:22;4.90;;;2.30;;
70970;SDS011;58632;51.718;19.446;2023-07-13T09:20:02;5.00;;;2.50;;
70970;SDS011;58632;51.718;19.446;2023-07-13T09:22:36;4.90;;;2.30;;
70970;SDS011;58632;51.718;19.446;2023-07-13T09:25:46;6.20;;;2.20;;
70970;SDS011;58632;51.718;19.446;2023-07-13T09:27:58;3.90;;;2.20;;
70970;SDS011;58632;51.718;19.446;2023-07-13T09:30:38;6.20;;;2.30;;
70970;SDS011;58632;51.718;19.446;2023-07-13T09:33:07;4.50;;;2.10;;
70970;SDS011;58632;51.718;19.446;2023-07-13T09:35:34;7.10;;;2.80;;
70970;SDS011;58632;51.718;19.446;2023-07-13T09:38:14;4.70;;;2.30;;
70970;SDS011;58632;51.718;19.446;2023-07-13T09:40:50;6.50;;;2.80;;
70970;SDS011;58632;51.718;19.446;2023-07-13T09:43:25;5.60;;;2.90;;
70970;SDS011;58632;51.718;19.446;2023-07-13T09:45:51;9.20;;;2.90;;
70970;SDS011;58632;51.718;19.446;2023-07-13T09:48:17;8.30;;;3.30;;
70970;SDS011;58632;51.718;19.446;2023-07-13T09:50:44;5.50;;;2.40;;
70970;SDS011;58632;51.718;19.446;2023-07-13T09:53:18;3.40;;;2.30;;
70970;SDS011;58632;51.718;19.446;2023-07-13T09:55:45;11.40;;;5.20;;
70970;SDS011;58632;51.718;19.446;2023-07-13T09:58:25;17.40;;;7.70;;
70970;SDS011;58632;51.718;19.446;2023-07-13T10:03:51;9.40;;;3.90;;
70970;SDS011;58632;51.718;19.446;2023-07-13T10:06:20;7.90;;;3.70;;
70970;SDS011;58632;51.718;19.446;2023-07-13T10:08:52;6.40;;;2.70;;
70970;SDS011;58632;51.718;19.446;2023-07-13T10:11:21;6.30;;;2.80;;
70970;SDS011;58632;51.718;19.446;2023-07-13T10:13:59;6.40;;;2.50;;
70970;SDS011;58632;51.718;19.446;2023-07-13T10:16:29;6.50;;;2.60;;
70970;SDS011;58632;51.718;19.446;2023-07-13T10:18:58;6.20;;;2.40;;
70970;SDS011;58632;51.718;19.446;2023-07-13T10:21:39;6.20;;;2.50;;
70970;SDS011;58632;51.718;19.446;2023-07-13T10:24:21;4.40;;;2.40;;
70970;SDS011;58632;51.718;19.446;2023-07-13T10:26:52;5.60;;;2.80;;
70970;SDS011;58632;51.718;19.446;2023-07-13T10:29:23;12.20;;;3.40;;
70970;SDS011;58632;51.718;19.446;2023-07-13T10:31:52;6.50;;;2.70;;
70970;SDS011;58632;51.718;19.446;2023-07-13T10:34:20;3.80;;;2.30;;
70970;SDS011;58632;51.718;19.446;2023-07-13T10:36:51;4.40;;;2.30;;
70970;SDS011;58632;51.718;19.446;2023-07-13T10:39:19;7.00;;;2.00;;
70970;SDS011;58632;51.718;19.446;2023-07-13T10:41:50;4.40;;;2.20;;
70970;SDS011;58632;51.718;19.446;2023-07-13T10:44:21;4.90;;;2.50;;
70970;SDS011;58632;51.718;19.446;2023-07-13T10:46:55;3.90;;;2.20;;
70970;SDS011;58632;51.718;19.446;2023-07-13T10:49:27;4.70;;;2.40;;
70970;SDS011;58632;51.718;19.446;2023-07-13T10:51:56;5.00;;;2.50;;
70970;SDS011;58632;51.718;19.446;2023-07-13T10:54:32;5.50;;;3.00;;
70970;SDS011;58632;51.718;19.446;2023-07-13T10:59:39;4.60;;;2.40;;
70970;SDS011;58632;51.718;19.446;2023-07-13T11:04:40;4.30;;;2.40;;
70970;SDS011;58632;51.718;19.446;2023-07-13T11:07:18;4.70;;;2.30;;
70970;SDS011;58632;51.718;19.446;2023-07-13T11:09:49;6.60;;;2.50;;
70970;SDS011;58632;51.718;19.446;2023-07-13T11:15:12;10.10;;;2.90;;
70970;SDS011;58632;51.718;19.446;2023-07-13T11:25:32;4.70;;;2.90;;
70970;SDS011;58632;51.718;19.446;2023-07-13T11:33:24;6.10;;;2.60;;
70970;SDS011;58632;51.718;19.446;2023-07-13T11:38:24;5.20;;;2.80;;
70970;SDS011;58632;51.718;19.446;2023-07-13T11:40:56;4.90;;;2.80;;
70970;SDS011;58632;51.718;19.446;2023-07-13T11:43:29;4.40;;;2.70;;
70970;SDS011;58632;51.718;19.446;2023-07-13T11:46:11;4.80;;;2.80;;
70970;SDS011;58632;51.718;19.446;2023-07-13T11:48:41;5.20;;;2.60;;
70970;SDS011;58632;51.718;19.446;2023-07-13T11:51:11;5.20;;;2.80;;
70970;SDS011;58632;51.718;19.446;2023-07-13T11:53:45;5.00;;;2.50;;
70970;SDS011;58632;51.718;19.446;2023-07-13T11:56:12;3.50;;;2.10;;
70970;SDS011;58632;51.718;19.446;2023-07-13T11:58:39;8.10;;;2.50;;
70970;SDS011;58632;51.718;19.446;2023-07-13T12:01:05;6.20;;;2.60;;
70970;SDS011;58632;51.718;19.446;2023-07-13T12:03:32;5.30;;;2.10;;
70970;SDS011;58632;51.718;19.446;2023-07-13T12:06:02;5.50;;;2.70;;
70970;SDS011;58632;51.718;19.446;2023-07-13T12:08:31;7.30;;;2.80;;
70970;SDS011;58632;51.718;19.446;2023-07-13T12:11:06;5.70;;;2.50;;
70970;SDS011;58632;51.718;19.446;2023-07-13T12:13:41;5.90;;;2.70;;
70970;SDS011;58632;51.718;19.446;2023-07-13T12:16:25;6.20;;;2.80;;
70970;SDS011;58632;51.718;19.446;2023-07-13T12:18:52;6.60;;;2.80;;
70970;SDS011;58632;51.718;19.446;2023-07-13T12:21:24;6.70;;;2.60;;
70970;SDS011;58632;51.718;19.446;2023-07-13T12:23:56;4.40;;;2.50;;
70970;SDS011;58632;51.718;19.446;2023-07-13T12:26:22;6.70;;;2.90;;
70970;SDS011;58632;51.718;19.446;2023-07-13T12:28:51;4.90;;;2.40;;
70970;SDS011;58632;51.718;19.446;2023-07-13T12:31:31;5.70;;;2.60;;
70970;SDS011;58632;51.718;19.446;2023-07-13T12:34:10;6.60;;;2.90;;
70970;SDS011;58632;51.718;19.446;2023-07-13T12:36:38;5.60;;;2.90;;
70970;SDS011;58632;51.718;19.446;2023-07-13T12:39:37;7.10;;;2.80;;
70970;SDS011;58632;51.718;19.446;2023-07-13T12:44:53;4.70;;;2.30;;
70970;SDS011;58632;51.718;19.446;2023-07-13T12:47:23;4.80;;;2.40;;
70970;SDS011;58632;51.718;19.446;2023-07-13T12:49:50;7.50;;;3.00;;
70970;SDS011;58632;51.718;19.446;2023-07-13T12:52:21;4.00;;;2.70;;
70970;SDS011;58632;51.718;19.446;2023-07-13T12:54:57;3.40;;;2.50;;
70970;SDS011;58632;51.718;19.446;2023-07-13T12:57:25;4.40;;;2.60;;
70970;SDS011;58632;51.718;19.446;2023-07-13T12:59:52;3.20;;;2.00;;
70970;SDS011;58632;51.718;19.446;2023-07-13T13:02:32;7.00;;;2.40;;
70970;SDS011;58632;51.718;19.446;2023-07-13T13:05:00;7.60;;;2.80;;
70970;SDS011;58632;51.718;19.446;2023-07-13T13:07:29;5.30;;;2.40;;
70970;SDS011;58632;51.718;19.446;2023-07-13T13:09:56;6.90;;;2.60;;
70970;SDS011;58632;51.718;19.446;2023-07-13T13:12:25;5.70;;;2.40;;
70970;SDS011;58632;51.718;19.446;2023-07-13T13:14:53;5.50;;;2.30;;
70970;SDS011;58632;51.718;19.446;2023-07-13T13:17:20;6.00;;;2.70;;
70970;SDS011;58632;51.718;19.446;2023-07-13T13:19:51;6.20;;;2.70;;
70970;SDS011;58632;51.718;19.446;2023-07-13T13:22:19;5.10;;;2.80;;
70970;SDS011;58632;51.718;19.446;2023-07-13T13:24:45;7.40;;;2.60;;
70970;SDS011;58632;51.718;19.446;2023-07-13T13:27:19;6.40;;;2.60;;
70970;SDS011;58632;51.718;19.446;2023-07-13T13:29:50;3.90;;;2.60;;
70970;SDS011;58632;51.718;19.446;2023-07-13T13:32:18;4.30;;;2.30;;
70970;SDS011;58632;51.718;19.446;2023-07-13T13:34:46;5.20;;;2.60;;
70970;SDS011;58632;51.718;19.446;2023-07-13T13:37:21;6.00;;;2.60;;
70970;SDS011;58632;51.718;19.446;2023-07-13T13:39:48;8.80;;;2.60;;
70970;SDS011;58632;51.718;19.446;2023-07-13T13:42:15;5.00;;;2.60;;
70970;SDS011;58632;51.718;19.446;2023-07-13T13:44:41;6.00;;;2.90;;
70970;SDS011;58632;51.718;19.446;2023-07-13T13:47:13;8.80;;;3.70;;
70970;SDS011;58632;51.718;19.446;2023-07-13T13:49:48;7.40;;;2.60;;
70970;SDS011;58632;51.718;19.446;2023-07-13T13:52:14;4.90;;;2.40;;
70970;SDS011;58632;51.718;19.446;2023-07-13T13:54:40;5.20;;;2.30;;
70970;SDS011;58632;51.718;19.446;2023-07-13T13:57:06;6.40;;;2.60;;
70970;SDS011;58632;51.718;19.446;2023-07-13T13:59:33;6.00;;;3.10;;
70970;SDS011;58632;51.718;19.446;2023-07-13T14:02:10;7.00;;;3.10;;
70970;SDS011;58632;51.718;19.446;2023-07-13T14:04:47;6.80;;;2.30;;
70970;SDS011;58632;51.718;19.446;2023-07-13T14:07:14;4.00;;;2.50;;
70970;SDS011;58632;51.718;19.446;2023-07-13T14:09:40;4.30;;;2.50;;
70970;SDS011;58632;51.718;19.446;2023-07-13T14:12:08;9.20;;;3.00;;
70970;SDS011;58632;51.718;19.446;2023-07-13T14:14:37;5.50;;;2.70;;
70970;SDS011;58632;51.718;19.446;2023-07-13T14:17:03;4.70;;;2.70;;
70970;SDS011;58632;51.718;19.446;2023-07-13T14:21:55;6.20;;;3.10;;
70970;SDS011;58632;51.718;19.446;2023-07-13T14:24:24;6.20;;;3.20;;
70970;SDS011;58632;51.718;19.446;2023-07-13T14:26:53;5.50;;;2.60;;
70970;SDS011;58632;51.718;19.446;2023-07-13T14:29:19;5.90;;;3.40;;
70970;SDS011;58632;51.718;19.446;2023-07-13T14:31:47;4.40;;;2.90;;
70970;SDS011;58632;51.718;19.446;2023-07-13T14:34:13;4.70;;;2.40;;
70970;SDS011;58632;51.718;19.446;2023-07-13T14:39:14;9.00;;;2.80;;
70970;SDS011;58632;51.718;19.446;2023-07-13T14:41:44;6.60;;;2.70;;
70970;SDS011;58632;51.718;19.446;2023-07-13T14:44:11;5.20;;;2.40;;
70970;SDS011;58632;51.718;19.446;2023-07-13T14:46:41;8.00;;;2.30;;
70970;SDS011;58632;51.718;19.446;2023-07-13T14:49:28;4.50;;;2.40;;
70970;SDS011;58632;51.718;19.446;2023-07-13T14:51:59;6.40;;;2.50;;
70970;SDS011;58632;51.718;19.446;2023-07-13T14:54:27;3.50;;;2.20;;
70970;SDS011;58632;51.718;19.446;2023-07-13T14:56:52;5.30;;;2.20;;
70970;SDS011;58632;51.718;19.446;2023-07-13T14:59:18;5.40;;;2.30;;
70970;SDS011;58632;51.718;19.446;2023-07-13T15:01:44;5.60;;;2.40;;
70970;SDS011;58632;51.718;19.446;2023-07-13T15:04:11;6.40;;;2.20;;
70970;SDS011;58632;51.718;19.446;2023-07-13T15:06:52;4.80;;;2.30;;
70970;SDS011;58632;51.718;19.446;2023-07-13T15:09:19;3.90;;;2.00;;
70970;SDS011;58632;51.718;19.446;2023-07-13T15:11:44;5.70;;;2.10;;
70970;SDS011;58632;51.718;19.446;2023-07-13T15:14:10;5.80;;;2.20;;
70970;SDS011;58632;51.718;19.446;2023-07-13T15:16:36;5.30;;;2.10;;
70970;SDS011;58632;51.718;19.446;2023-07-13T15:19:03;7.20;;;2.10;;
70970;SDS011;58632;51.718;19.446;2023-07-13T15:21:29;6.20;;;2.00;;
70970;SDS011;58632;51.718;19.446;2023-07-13T15:23:59;6.20;;;1.80;;
70970;SDS011;58632;51.718;19.446;2023-07-13T15:26:25;4.30;;;1.70;;
70970;SDS011;58632;51.718;19.446;2023-07-13T15:28:51;3.40;;;1.70;;
70970;SDS011;58632;51.718;19.446;2023-07-13T15:31:23;5.30;;;2.00;;
70970;SDS011;58632;51.718;19.446;2023-07-13T15:33:52;5.30;;;2.00;;
70970;SDS011;58632;51.718;19.446;2023-07-13T15:36:20;4.60;;;1.80;;
70970;SDS011;58632;51.718;19.446;2023-07-13T15:38:47;5.90;;;2.10;;
70970;SDS011;58632;51.718;19.446;2023-07-13T15:43:42;5.20;;;2.20;;
70970;SDS011;58632;51.718;19.446;2023-07-13T15:46:08;7.40;;;2.30;;
70970;SDS011;58632;51.718;19.446;2023-07-13T15:48:33;6.80;;;2.20;;
70970;SDS011;58632;51.718;19.446;2023-07-13T15:51:03;4.40;;;2.20;;
70970;SDS011;58632;51.718;19.446;2023-07-13T15:53:32;3.80;;;1.70;;
70970;SDS011;58632;51.718;19.446;2023-07-13T15:56:01;4.50;;;2.20;;
70970;SDS011;58632;51.718;19.446;2023-07-13T15:58:31;4.70;;;2.10;;
70970;SDS011;58632;51.718;19.446;2023-07-13T16:00:57;5.30;;;2.50;;
70970;SDS011;58632;51.718;19.446;2023-07-13T16:03:23;3.30;;;2.40;;
70970;SDS011;58632;51.718;19.446;2023-07-13T16:05:49;3.20;;;2.40;;
70970;SDS011;58632;51.718;19.446;2023-07-13T16:08:30;5.00;;;2.40;;
70970;SDS011;58632;51.718;19.446;2023-07-13T16:10:58;5.70;;;2.30;;